Time;durP1;ratioP1;P1;durP2;ratioP2;P2;SDS_P1;SDS_P2;PMS_P1;PMS_P2;Temp;Humidity;BMP_temperature;BMP_pressure;BME280_temperature;BME280_humidity;BME280_pressure;Samples;Min_cycle;Max_cycle;Signal;HPM_P1;HPM_P2
2023/10/11 00:01:42;;;;;;;8.50;4.28;;;;;;;12.68;100.00;97687.59;5004874;28;20407;-81
2023/10/11 00:04:23;;;;;;;8.85;4.80;;;;;;;12.67;100.00;97679.88;5001417;28;21305;-81
2023/10/11 00:06:49;;;;;;;7.78;4.00;;;;;;;12.65;100.00;97684.63;4999625;28;20421;-82
2023/10/11 00:09:16;;;;;;;9.45;5.05;;;;;;;12.62;100.00;97678.00;4999415;28;20402;-81
2023/10/11 00:11:42;;;;;;;8.50;4.70;;;;;;;12.61;100.00;97688.88;4999279;28;20413;-82
2023/10/11 00:14:08;;;;;;;7.22;4.05;;;;;;;12.59;100.00;97683.00;4999377;28;20906;-81
2023/10/11 00:16:35;;;;;;;11.32;5.00;;;;;;;12.57;100.00;97687.75;4998780;28;20431;-82
2023/10/11 00:19:05;;;;;;;10.47;5.17;;;;;;;12.54;100.00;97682.97;4998908;28;20402;-81
2023/10/11 00:21:42;;;;;;;14.10;5.65;;;;;;;12.53;100.00;97684.84;4998943;28;20406;-81
2023/10/11 00:24:09;;;;;;;10.10;5.13;;;;;;;12.52;100.00;97688.53;4998338;28;20491;-81
2023/10/11 00:26:35;;;;;;;10.25;5.22;;;;;;;12.52;100.00;97680.56;4999034;28;20406;-81
2023/10/11 00:29:01;;;;;;;8.43;4.55;;;;;;;12.51;100.00;97684.28;4998293;28;20469;-82
2023/10/11 00:31:31;;;;;;;8.53;4.60;;;;;;;12.51;100.00;97678.16;4998924;28;20486;-82
2023/10/11 00:33:59;;;;;;;9.43;4.47;;;;;;;12.51;100.00;97675.50;4998427;28;20407;-81
2023/10/11 00:36:29;;;;;;;12.60;4.85;;;;;;;12.51;100.00;97676.31;4998262;28;20426;-81
2023/10/11 00:38:57;;;;;;;9.27;4.63;;;;;;;12.50;100.00;97674.72;4981971;28;20762;-81
2023/10/11 00:41:30;;;;;;;11.57;5.10;;;;;;;12.48;100.00;97676.81;4998704;28;20426;-80
2023/10/11 00:43:57;;;;;;;14.13;5.18;;;;;;;12.49;100.00;97667.78;4998557;28;20409;-81
2023/10/11 00:46:27;;;;;;;8.70;4.73;;;;;;;12.48;100.00;97668.84;4998988;28;20443;-81
2023/10/11 00:48:54;;;;;;;11.10;5.32;;;;;;;12.48;100.00;97668.06;4998405;28;20402;-81
2023/10/11 00:51:24;;;;;;;8.00;4.35;;;;;;;12.48;100.00;97666.19;4998117;28;20405;-82
2023/10/11 00:53:52;;;;;;;9.10;4.65;;;;;;;12.50;100.00;97661.44;4999116;28;20759;-82
2023/10/11 00:56:20;;;;;;;9.70;4.38;;;;;;;12.50;100.00;97656.13;4998320;28;20429;-82
2023/10/11 00:58:47;;;;;;;11.15;4.85;;;;;;;12.50;100.00;97665.94;4981614;28;20406;-82
2023/10/11 01:01:14;;;;;;;10.80;5.22;;;;;;;12.48;100.00;97660.88;5000284;28;20398;-82
2023/10/11 01:03:41;;;;;;;10.57;5.03;;;;;;;12.47;100.00;97656.66;5000114;28;20430;-81
2023/10/11 01:06:10;;;;;;;13.18;5.75;;;;;;;12.46;100.00;97660.38;5000236;28;20826;-80
2023/10/11 01:08:40;;;;;;;9.53;4.83;;;;;;;12.43;100.00;97662.72;5000615;28;20402;-82
2023/10/11 01:11:09;;;;;;;8.97;4.23;;;;;;;12.39;100.00;97662.44;5000259;28;20402;-81
2023/10/11 01:13:40;;;;;;;11.07;5.15;;;;;;;12.34;100.00;97660.53;5000336;28;20463;-82
2023/10/11 01:16:07;;;;;;;11.80;5.00;;;;;;;12.32;100.00;97654.69;4999972;28;20462;-82
2023/10/11 01:18:34;;;;;;;10.80;4.70;;;;;;;12.29;100.00;97655.19;5001421;28;20398;-82
2023/10/11 01:21:03;;;;;;;15.02;4.78;;;;;;;12.28;100.00;97645.63;5004109;28;20466;-81
2023/10/11 01:23:29;;;;;;;9.15;4.30;;;;;;;12.27;100.00;97645.88;5003132;28;20775;-82
2023/10/11 01:25:55;;;;;;;11.88;5.15;;;;;;;12.23;100.00;97642.16;5001172;28;20417;-80
2023/10/11 01:28:22;;;;;;;11.90;5.00;;;;;;;12.22;100.00;97645.84;4999158;28;20493;-81
2023/10/11 01:30:50;;;;;;;8.43;4.43;;;;;;;12.23;100.00;97639.50;4999270;28;20441;-82
2023/10/11 01:33:16;;;;;;;10.52;5.38;;;;;;;12.21;100.00;97637.09;4998528;28;20931;-80
2023/10/11 01:35:42;;;;;;;11.20;5.45;;;;;;;12.20;100.00;97637.34;4998952;28;20422;-82
2023/10/11 01:38:10;;;;;;;12.48;5.10;;;;;;;12.19;100.00;97639.19;4997835;28;20407;-81
2023/10/11 01:40:40;;;;;;;9.57;4.45;;;;;;;12.19;100.00;97633.88;4998674;28;20402;-81
2023/10/11 01:43:06;;;;;;;10.43;5.25;;;;;;;12.18;100.00;97632.28;4998630;28;20398;-82
2023/10/11 01:45:33;;;;;;;9.70;4.88;;;;;;;12.18;100.00;97634.94;4998534;28;20421;-81
2023/10/11 01:48:00;;;;;;;12.18;5.47;;;;;;;12.19;100.00;97638.38;5004701;28;20394;-80
2023/10/11 01:50:28;;;;;;;8.70;4.20;;;;;;;12.19;100.00;97628.56;4998264;28;20406;-82
2023/10/11 01:52:54;;;;;;;9.20;4.57;;;;;;;12.21;100.00;97630.97;4997743;28;20433;-81
2023/10/11 01:55:22;;;;;;;8.45;4.65;;;;;;;12.21;100.00;97636.28;4997893;28;20422;-81
2023/10/11 01:57:50;;;;;;;11.07;4.72;;;;;;;12.22;100.00;97630.72;4999739;28;20434;-81
2023/10/11 02:00:20;;;;;;;11.55;4.95;;;;;;;12.22;100.00;97633.38;4998762;28;20437;-79
2023/10/11 02:02:55;;;;;;;11.30;5.17;;;;;;;12.23;100.00;97628.88;4996990;28;20437;-81
2023/10/11 02:05:21;;;;;;;10.73;4.55;;;;;;;12.27;100.00;97632.59;4997258;28;20418;-81
2023/10/11 02:07:48;;;;;;;8.07;4.38;;;;;;;12.29;100.00;97627.84;4979343;28;20402;-79
2023/10/11 02:10:14;;;;;;;11.63;5.68;;;;;;;12.34;100.00;97623.38;4998961;28;20402;-81
2023/10/11 02:12:46;;;;;;;14.57;4.95;;;;;;;12.38;100.00;97621.03;5002438;28;20394;-80
2023/10/11 02:15:28;;;;;;;11.93;5.25;;;;;;;12.42;100.00;97622.09;5001599;28;20520;-81
2023/10/11 02:17:54;;;;;;;8.75;4.22;;;;;;;12.44;100.00;97621.84;5001685;28;20782;-81
2023/10/11 02:20:21;;;;;;;11.73;4.97;;;;;;;12.43;100.00;97623.69;5001910;28;20398;-82
2023/10/11 02:22:51;;;;;;;7.63;4.15;;;;;;;12.43;100.00;97622.88;5002026;28;20441;-81
2023/10/11 02:25:18;;;;;;;10.88;4.75;;;;;;;12.41;100.00;97626.59;5001950;28;20403;-81
2023/10/11 02:27:45;;;;;;;9.13;4.80;;;;;;;12.41;100.00;97625.78;5002179;28;20395;-82
2023/10/11 02:30:13;;;;;;;12.60;4.82;;;;;;;12.41;100.00;97628.44;5002494;28;20394;-82
2023/10/11 02:32:42;;;;;;;11.85;5.13;;;;;;;12.44;100.00;97629.81;5002844;28;20406;-82
2023/10/11 02:35:12;;;;;;;13.13;5.43;;;;;;;12.46;100.00;97620.53;5001139;28;20422;-81
2023/10/11 02:37:39;;;;;;;10.88;5.38;;;;;;;12.47;100.00;97630.09;5001717;28;20398;-80
2023/10/11 02:40:08;;;;;;;12.65;5.13;;;;;;;12.48;100.00;97631.69;5002383;28;20433;-82
2023/10/11 02:42:37;;;;;;;8.23;4.55;;;;;;;12.50;100.00;97618.94;5001687;28;20402;-79
2023/10/11 02:45:07;;;;;;;10.23;4.23;;;;;;;12.48;100.00;97621.06;5001196;28;20414;-82
2023/10/11 02:47:35;;;;;;;12.63;4.90;;;;;;;12.53;100.00;97612.34;5001147;28;20481;-81
2023/10/11 02:50:06;;;;;;;11.30;5.00;;;;;;;12.61;100.00;97611.84;5001811;28;20406;-82
2023/10/11 02:52:35;;;;;;;15.00;5.33;;;;;;;12.71;100.00;97607.38;5002040;28;20444;-79
2023/10/11 02:55:12;;;;;;;11.18;5.13;;;;;;;12.73;100.00;97604.47;5001378;28;20406;-82
2023/10/11 02:57:40;;;;;;;8.30;5.05;;;;;;;12.71;100.00;97607.38;5001825;28;20398;-81
2023/10/11 03:00:21;;;;;;;12.77;4.90;;;;;;;12.66;100.00;97603.91;5001906;28;20887;-81
2023/10/11 03:02:54;;;;;;;11.45;5.25;;;;;;;12.59;100.00;97608.66;4985896;28;20410;-82
2023/10/11 03:05:26;;;;;;;18.27;5.70;;;;;;;12.53;100.00;97607.81;5003378;28;20418;-82
2023/10/11 03:07:53;;;;;;;10.85;4.45;;;;;;;12.50;100.00;97603.03;4986034;28;20748;-82
2023/10/11 03:10:20;;;;;;;11.30;5.00;;;;;;;12.47;100.00;97600.91;5002012;28;20398;-82
2023/10/11 03:12:50;;;;;;;11.07;5.45;;;;;;;12.45;100.00;97597.69;5002383;28;20422;-82
2023/10/11 03:15:19;;;;;;;12.18;4.90;;;;;;;12.46;100.00;97606.47;5001788;28;20903;-79
2023/10/11 03:17:48;;;;;;;10.48;4.68;;;;;;;12.44;100.00;97595.28;5001705;28;20395;-82
2023/10/11 03:20:28;;;;;;;9.38;4.53;;;;;;;12.42;100.00;97606.16;5002304;28;20406;-82
2023/10/11 03:22:59;;;;;;;7.28;4.18;;;;;;;12.40;100.00;97602.97;5006080;28;20399;-81
2023/10/11 03:25:28;;;;;;;8.82;4.57;;;;;;;12.38;100.00;97599.78;5001909;28;20768;-81
2023/10/11 03:27:55;;;;;;;13.05;5.05;;;;;;;12.35;100.00;97598.44;5000195;28;20778;-82
2023/10/11 03:30:24;;;;;;;10.43;5.00;;;;;;;12.33;100.00;97603.19;5001039;28;20771;-81
2023/10/11 03:32:51;;;;;;;11.85;4.90;;;;;;;12.33;100.00;97599.72;5000960;28;20444;-81
2023/10/11 03:35:19;;;;;;;9.70;5.10;;;;;;;12.30;100.00;97605.56;5000765;28;20418;-82
2023/10/11 03:37:57;;;;;;;11.20;5.40;;;;;;;12.27;100.00;97600.75;5000776;28;20402;-82
2023/10/11 03:40:54;;;;;;;11.68;5.35;;;;;;;12.25;100.00;97594.94;5000622;28;20402;-82
2023/10/11 03:43:20;;;;;;;15.57;5.47;;;;;;;12.20;100.00;97597.53;5001049;28;20481;-82
2023/10/11 03:45:50;;;;;;;14.32;5.72;;;;;;;12.16;100.00;97591.16;5000389;28;20437;-79
2023/10/11 03:48:17;;;;;;;10.82;5.45;;;;;;;12.13;100.00;97589.78;5000230;28;20406;-80
2023/10/11 03:50:52;;;;;;;15.35;6.18;;;;;;;12.12;100.00;97600.66;4999944;28;20406;-80
2023/10/11 03:53:19;;;;;;;12.70;5.30;;;;;;;12.11;100.00;97593.75;4999595;28;20740;-81
2023/10/11 03:55:46;;;;;;;13.10;5.35;;;;;;;12.09;100.00;97596.69;5000353;28;20526;-82
2023/10/11 03:58:32;;;;;;;11.65;5.28;;;;;;;12.09;100.00;97594.03;4999670;28;20769;-82
2023/10/11 04:01:43;;;;;;;10.98;4.72;;;;;;;12.11;100.00;97597.22;4999943;28;20434;-80
2023/10/11 04:03:49;;;;;;;11.88;5.15;;;;;;;12.12;100.00;97590.84;4992128;28;20462;-82
2023/10/11 04:06:15;;;;;;;10.50;5.15;;;;;;;12.15;100.00;97590.34;5000672;28;20441;-80
2023/10/11 04:08:43;;;;;;;11.03;5.10;;;;;;;12.15;100.00;97585.03;5001019;28;20497;-82
2023/10/11 04:11:19;;;;;;;11.30;5.28;;;;;;;12.17;100.00;97584.78;5000029;28;20791;-83
2023/10/11 04:13:49;;;;;;;11.45;5.22;;;;;;;12.20;100.00;97589.56;5001176;28;20406;-82
2023/10/11 04:16:17;;;;;;;14.43;5.32;;;;;;;12.21;100.00;97586.66;5006761;28;20418;-82
2023/10/11 04:18:44;;;;;;;9.00;4.90;;;;;;;12.23;100.00;97578.47;5000098;28;20410;-86
2023/10/11 04:23:36;;;;;;;10.27;4.57;;;;;;;12.21;100.00;97583.22;5003261;28;20429;-85
2023/10/11 04:26:23;;;;;;;13.90;6.00;;;;;;;12.26;100.00;97584.03;4984604;28;20487;-85
2023/10/11 04:28:51;;;;;;;22.33;5.88;;;;;;;12.39;100.00;97583.59;4985091;28;20470;-86
2023/10/11 04:31:30;;;;;;;10.02;4.47;;;;;;;12.53;100.00;97580.47;4999146;28;20413;-81
2023/10/11 04:33:58;;;;;;;17.73;5.60;;;;;;;12.72;100.00;97584.25;4998667;28;20482;-82
2023/10/11 04:36:25;;;;;;;20.58;5.88;;;;;;;12.88;100.00;97588.59;4999288;28;20827;-82
2023/10/11 04:38:52;;;;;;;13.90;5.30;;;;;;;13.03;100.00;97585.97;4999282;28;20402;-82
2023/10/11 04:41:20;;;;;;;13.68;4.95;;;;;;;13.14;100.00;97587.66;4982516;28;20434;-83
2023/10/11 04:44:06;;;;;;;19.48;5.53;;;;;;;13.23;100.00;97595.88;4999664;28;20486;-83
2023/10/11 04:46:36;;;;;;;13.98;4.70;;;;;;;13.32;100.00;97594.31;4982933;28;20792;-82
2023/10/11 04:49:18;;;;;;;17.88;5.95;;;;;;;13.33;100.00;97592.44;5000283;28;20872;-82
2023/10/11 04:51:46;;;;;;;13.38;5.03;;;;;;;13.36;100.00;97595.41;5000447;28;20406;-83
2023/10/11 04:54:17;;;;;;;12.20;4.97;;;;;;;13.37;100.00;97593.53;4999877;28;20420;-80
2023/10/11 04:59:15;;;;;;;14.27;5.18;;;;;;;13.44;100.00;97591.41;4999059;28;20787;-82
2023/10/11 05:04:13;;;;;;;18.13;5.75;;;;;;;13.51;100.00;97592.75;4999863;28;20411;-83
2023/10/11 05:06:42;;;;;;;13.63;5.05;;;;;;;13.49;100.00;97586.09;4999818;28;20502;-82
2023/10/11 05:09:56;;;;;;;13.27;4.90;;;;;;;13.48;100.00;97585.31;5000236;28;20406;-84
2023/10/11 05:12:07;;;;;;;12.15;4.80;;;;;;;13.46;100.00;97598.06;4989360;28;20440;-84
2023/10/11 05:14:40;;;;;;;16.90;5.13;;;;;;;13.41;100.00;97595.41;5000041;28;20488;-82
2023/10/11 05:19:45;;;;;;;9.63;4.10;;;;;;;13.43;100.00;97592.47;4998975;28;20422;-80
2023/10/11 05:22:17;;;;;;;12.52;4.70;;;;;;;13.44;100.00;97586.91;4998655;28;20442;-82
2023/10/11 05:27:25;;;;;;;17.47;5.53;;;;;;;13.40;100.00;97583.16;4998809;28;20509;-80
2023/10/11 05:51:39;;;;;;;13.27;4.80;;;;;;;13.58;100.00;97605.78;4999212;28;20479;-84
2023/10/11 05:54:07;;;;;;;17.90;5.07;;;;;;;13.53;100.00;97597.81;5000198;28;20406;-84
2023/10/11 05:56:34;;;;;;;11.45;5.00;;;;;;;13.52;100.00;97598.88;4999737;28;20418;-84
2023/10/11 05:59:11;;;;;;;9.90;4.93;;;;;;;13.49;100.00;97605.50;4998722;28;20401;-83
2023/10/11 06:01:37;;;;;;;9.05;4.40;;;;;;;13.50;100.00;97608.97;4982243;28;20419;-83
2023/10/11 06:04:07;;;;;;;12.05;4.60;;;;;;;13.45;100.00;97611.63;4978728;28;20451;-83
2023/10/11 06:06:45;;;;;;;12.68;5.18;;;;;;;13.40;100.00;97609.75;4979911;28;20943;-82
2023/10/11 06:09:26;;;;;;;16.05;4.80;;;;;;;13.36;100.00;97607.88;4979511;28;20415;-84
2023/10/11 06:11:53;;;;;;;10.02;4.45;;;;;;;13.32;100.00;97602.28;4980794;28;20422;-84
2023/10/11 06:14:20;;;;;;;11.05;4.78;;;;;;;13.30;100.00;97604.44;4978539;28;20411;-84
2023/10/11 06:16:58;;;;;;;15.87;5.13;;;;;;;13.32;100.00;97604.16;4978628;28;20496;-81
2023/10/11 06:19:26;;;;;;;16.83;5.97;;;;;;;13.30;100.00;97596.47;4979283;28;20436;-80
2023/10/11 06:21:58;;;;;;;13.77;5.32;;;;;;;13.28;100.00;97603.09;4978807;28;20412;-85
2023/10/11 06:24:24;;;;;;;11.82;5.22;;;;;;;13.27;100.00;97596.97;4979606;28;20900;-83
2023/10/11 06:26:53;;;;;;;15.27;5.00;;;;;;;13.27;100.00;97599.63;4989389;28;20457;-82
2023/10/11 06:29:24;;;;;;;11.60;4.88;;;;;;;13.28;100.00;97597.78;5000665;28;20414;-83
2023/10/11 06:31:52;;;;;;;12.57;4.73;;;;;;;13.30;100.00;97595.66;4987458;28;20743;-83
2023/10/11 06:36:50;;;;;;;11.75;4.25;;;;;;;13.41;100.00;97597.25;4978094;28;20908;-82
2023/10/11 06:42:18;;;;;;;19.40;5.65;;;;;;;13.56;100.00;97595.41;4970982;28;20420;-80
2023/10/11 06:44:48;;;;;;;22.83;5.38;;;;;;;13.67;100.00;97596.22;5004760;28;20415;-83
2023/10/11 06:47:15;;;;;;;19.63;5.65;;;;;;;13.81;100.00;97602.63;4997953;28;20402;-82
2023/10/11 06:49:44;;;;;;;16.42;5.88;;;;;;;13.91;100.00;97607.13;4996893;28;20462;-82
2023/10/11 06:52:15;;;;;;;24.45;5.43;;;;;;;14.06;100.00;97603.69;4977441;28;20400;-81
2023/10/11 06:55:07;;;;;;;23.05;5.78;;;;;;;14.25;100.00;97610.03;4978071;28;20400;-81
2023/10/11 06:57:39;;;;;;;12.03;4.40;;;;;;;14.51;100.00;97605.50;4980621;28;20404;-83
2023/10/11 07:00:12;;;;;;;13.52;5.68;;;;;;;14.69;100.00;97600.38;4981104;28;20456;-83
2023/10/11 07:02:39;;;;;;;15.30;5.07;;;;;;;15.03;100.00;97607.72;4980684;28;20404;-84
2023/10/11 07:05:05;;;;;;;21.45;4.75;;;;;;;15.12;100.00;97616.72;4986819;28;20448;-84
2023/10/11 07:07:34;;;;;;;21.23;5.13;;;;;;;15.21;100.00;97612.41;5000905;28;20783;-84
2023/10/11 07:10:04;;;;;;;16.83;4.72;;;;;;;15.33;100.00;97604.88;5001698;28;20429;-83
2023/10/11 07:12:40;;;;;;;13.02;4.03;;;;;;;15.47;100.00;97615.72;4999884;28;20441;-83
2023/10/11 07:15:08;;;;;;;13.23;5.07;;;;;;;15.57;100.00;97604.22;4982560;28;20406;-81
2023/10/11 07:17:34;;;;;;;18.95;5.38;;;;;;;15.60;100.00;97603.66;4999302;28;20394;-84
2023/10/11 07:20:00;;;;;;;20.83;6.00;;;;;;;15.63;100.00;97603.91;4999375;28;20574;-82
2023/10/11 07:22:27;;;;;;;18.88;5.30;;;;;;;15.74;100.00;97612.63;4983256;28;20424;-78
2023/10/11 07:25:36;;;;;;;16.98;5.50;;;;;;;15.79;100.00;97616.06;4991691;28;20505;-79
2023/10/11 07:27:44;;;;;;;20.88;5.45;;;;;;;15.93;100.00;97624.25;4997834;28;20870;-81
2023/10/11 07:30:17;;;;;;;17.52;4.93;;;;;;;15.99;100.00;97627.66;4989636;28;20421;-79
2023/10/11 07:32:43;;;;;;;20.98;4.90;;;;;;;16.06;100.00;97630.81;4991629;28;20416;-81
2023/10/11 07:35:18;;;;;;;20.70;5.43;;;;;;;16.20;100.00;97629.09;4978932;28;20411;-79
2023/10/11 07:37:44;;;;;;;23.38;5.53;;;;;;;16.26;100.00;97630.63;4979529;28;20619;-79
2023/10/11 07:40:20;;;;;;;25.10;6.72;;;;;;;16.28;100.00;97623.13;4979144;28;20491;-81
2023/10/11 07:42:47;;;;;;;20.42;5.63;;;;;;;16.48;100.00;97628.28;4985666;28;20420;-82
2023/10/11 07:45:13;;;;;;;23.63;5.33;;;;;;;16.56;100.00;97627.66;4996549;28;20418;-80
2023/10/11 07:47:45;;;;;;;24.38;5.55;;;;;;;16.70;100.00;97635.03;4980377;28;20443;-81
2023/10/11 07:50:14;;;;;;;21.60;5.15;;;;;;;16.76;100.00;97634.72;4986881;28;20420;-79
2023/10/11 07:52:41;;;;;;;20.73;5.25;;;;;;;16.81;100.00;97634.63;4996806;28;20409;-79
2023/10/11 07:55:12;;;;;;;22.77;4.88;;;;;;;16.92;100.00;97628.06;4980230;28;20407;-80
2023/10/11 07:57:44;;;;;;;20.02;5.38;;;;;;;17.11;100.00;97627.34;4980344;28;20440;-79
2023/10/11 08:00:17;;;;;;;24.92;5.68;;;;;;;17.25;100.00;97623.66;4981302;28;20412;-80
2023/10/11 08:02:43;;;;;;;21.55;5.65;;;;;;;17.39;100.00;97626.41;4983521;28;20912;-80
2023/10/11 08:05:14;;;;;;;22.95;5.45;;;;;;;17.66;100.00;97623.94;4998447;28;20411;-79
2023/10/11 08:07:40;;;;;;;21.92;5.20;;;;;;;17.93;100.00;97620.56;4998212;28;20406;-81
2023/10/11 08:10:29;;;;;;;27.88;5.38;;;;;;;18.02;100.00;97620.69;4998072;28;20401;-83
2023/10/11 08:12:59;;;;;;;18.97;5.23;;;;;;;18.26;100.00;97624.03;4995478;28;20469;-83
2023/10/11 08:15:25;;;;;;;18.77;4.47;;;;;;;18.58;100.00;97628.56;4980246;28;20448;-82
2023/10/11 08:17:52;;;;;;;17.45;4.90;;;;;;;18.91;100.00;97621.25;4979417;28;20412;-80
2023/10/11 08:20:18;;;;;;;40.43;8.83;;;;;;;19.11;100.00;97625.41;4988187;28;20412;-80
2023/10/11 08:22:47;;;;;;;30.33;7.22;;;;;;;19.12;98.32;97622.41;4991421;28;20435;-81
2023/10/11 08:25:13;;;;;;;83.15;9.80;;;;;;;19.18;99.34;97615.84;4980361;28;20435;-81
2023/10/11 08:27:41;;;;;;;19.73;4.45;;;;;;;19.57;99.46;97615.28;4989984;28;20405;-80
2023/10/11 08:30:17;;;;;;;31.10;6.13;;;;;;;19.51;94.03;97619.19;5000223;28;20550;-82
2023/10/11 08:32:46;;;;;;;26.17;5.45;;;;;;;19.65;95.09;97622.63;4996372;28;20806;-82
2023/10/11 08:35:23;;;;;;;45.78;7.47;;;;;;;19.80;94.34;97609.94;4986441;28;20527;-81
2023/10/11 08:37:52;;;;;;;17.25;4.30;;;;;;;20.19;94.22;97620.00;4986703;28;20927;-81
2023/10/11 08:40:29;;;;;;;11.57;4.13;;;;;;;20.49;93.74;97624.63;4979627;28;20401;-82
2023/10/11 08:43:00;;;;;;;18.58;4.68;;;;;;;20.63;93.44;97632.63;4979659;28;20408;-81
2023/10/11 08:45:33;;;;;;;17.67;4.38;;;;;;;20.77;90.68;97625.22;4985725;28;20807;-80
2023/10/11 08:47:59;;;;;;;8.77;3.40;;;;;;;20.70;92.20;97620.31;4983450;28;20495;-81
2023/10/11 08:50:34;;;;;;;8.90;3.22;;;;;;;20.53;93.43;97619.41;4984250;28;20408;-82
2023/10/11 08:53:07;;;;;;;17.98;4.68;;;;;;;20.37;92.75;97614.44;4993227;28;20477;-82
2023/10/11 08:55:35;;;;;;;15.82;4.25;;;;;;;20.47;92.62;97610.69;4988446;28;20408;-81
2023/10/11 08:58:04;;;;;;;10.82;3.78;;;;;;;20.45;93.84;97616.38;4995850;28;20407;-82
2023/10/11 09:00:33;;;;;;;22.58;4.57;;;;;;;20.22;92.17;97620.22;4996586;28;20411;-82
2023/10/11 09:03:17;;;;;;;16.00;4.20;;;;;;;20.28;93.28;97620.88;4979779;28;20412;-82
2023/10/11 09:05:44;;;;;;;17.73;5.38;;;;;;;20.24;90.76;97615.28;4979461;28;20500;-81
2023/10/11 09:08:21;;;;;;;14.50;4.75;;;;;;;20.43;91.07;97609.75;4981846;28;20402;-81
2023/10/11 09:10:51;;;;;;;36.05;5.88;;;;;;;20.31;87.99;97609.47;4983393;28;20423;-82
2023/10/11 09:13:26;;;;;;;22.48;6.25;;;;;;;20.35;91.36;97613.19;4983376;28;20785;-82
2023/10/11 09:15:54;;;;;;;22.58;5.38;;;;;;;20.34;90.85;97607.00;4981841;28;20420;-81
2023/10/11 09:18:21;;;;;;;25.98;5.05;;;;;;;20.46;88.02;97607.22;4996937;28;20406;-82
2023/10/11 09:20:55;;;;;;;29.27;5.22;;;;;;;20.43;90.29;97607.06;4998117;28;20957;-81
2023/10/11 09:23:34;;;;;;;28.35;5.47;;;;;;;20.52;91.08;97610.59;5005200;28;20831;-81
2023/10/11 09:26:01;;;;;;;23.90;5.80;;;;;;;20.71;89.62;97608.44;4986002;28;20420;-81
2023/10/11 09:28:28;;;;;;;8.93;3.75;;;;;;;20.86;90.86;97616.09;4985171;28;20871;-82
2023/10/11 09:31:11;;;;;;;16.85;3.92;;;;;;;21.22;90.41;97610.50;4962587;28;20528;-83
2023/10/11 09:33:40;;;;;;;21.05;4.25;;;;;;;21.24;86.58;97608.31;4963887;28;20408;-83
2023/10/11 09:36:07;;;;;;;20.13;5.90;;;;;;;21.50;87.43;97604.84;4967484;28;20459;-84
2023/10/11 09:38:39;;;;;;;11.95;3.97;;;;;;;21.92;86.31;97614.81;4999427;28;20866;-82
2023/10/11 09:41:07;;;;;;;16.05;5.75;;;;;;;22.47;86.77;97613.31;4998525;28;20493;-83
2023/10/11 09:43:41;;;;;;;7.30;4.07;;;;;;;23.20;85.35;97620.16;4999270;28;20426;-84
2023/10/11 09:46:11;;;;;;;11.43;3.67;;;;;;;23.82;80.98;97617.53;4998937;28;20405;-83
2023/10/11 09:48:38;;;;;;;12.70;3.65;;;;;;;24.55;77.14;97612.34;4999067;28;20458;-83
2023/10/11 09:51:08;;;;;;;18.60;5.18;;;;;;;24.96;73.50;97622.22;5000222;28;20414;-85
2023/10/11 09:53:41;;;;;;;15.13;4.03;;;;;;;25.34;71.04;97618.34;5000591;28;20461;-83
2023/10/11 09:56:15;;;;;;;10.80;3.97;;;;;;;25.76;70.19;97616.94;4994879;28;20427;-83
2023/10/11 09:58:46;;;;;;;10.45;3.72;;;;;;;25.90;70.05;97621.19;4982738;28;20401;-85
2023/10/11 10:01:20;;;;;;;10.18;3.20;;;;;;;26.14;69.10;97621.88;5001301;28;20399;-81
2023/10/11 10:03:47;;;;;;;12.68;3.90;;;;;;;26.11;69.65;97616.34;4999165;28;20406;-83
2023/10/11 10:06:23;;;;;;;17.20;4.13;;;;;;;25.98;69.23;97612.91;4980527;28;20882;-83
2023/10/11 10:12:20;;;;;;;11.50;3.35;;;;;;;25.64;70.62;97610.75;4938345;29;20415;-83
2023/10/11 10:14:50;;;;;;;7.35;3.33;;;;;;;25.52;70.35;97606.13;4998031;28;20417;-83
2023/10/11 10:17:18;;;;;;;17.80;4.20;;;;;;;24.91;68.43;97602.69;4998440;28;20755;-83
2023/10/11 10:19:45;;;;;;;17.08;4.43;;;;;;;24.53;67.27;97598.34;4997972;28;20413;-83
2023/10/11 10:22:16;;;;;;;11.37;3.97;;;;;;;24.57;70.36;97599.28;4987139;28;20773;-82
2023/10/11 10:24:44;;;;;;;15.40;4.22;;;;;;;24.48;70.20;97601.28;4981404;28;20447;-81
2023/10/11 10:27:37;;;;;;;13.80;4.20;;;;;;;24.32;72.27;97607.69;4978612;28;20885;-83
2023/10/11 10:30:05;;;;;;;17.42;4.93;;;;;;;24.40;70.04;97607.59;4979963;28;20459;-82
2023/10/11 10:32:33;;;;;;;12.02;4.10;;;;;;;24.31;72.46;97604.19;4983678;28;20806;-81
2023/10/11 10:35:38;;;;;;;8.40;3.33;;;;;;;24.27;75.44;97606.00;4985115;28;20399;-83
2023/10/11 10:38:09;;;;;;;13.68;4.63;;;;;;;24.38;74.56;97612.53;4922877;29;20421;-83
2023/10/11 10:40:42;;;;;;;6.68;2.90;;;;;;;24.46;75.48;97608.94;4922027;29;20417;-83
2023/10/11 10:43:27;;;;;;;12.10;3.67;;;;;;;24.40;71.91;97606.81;4970978;28;20418;-82
2023/10/11 10:45:59;;;;;;;8.93;3.43;;;;;;;24.66;75.73;97597.25;5003802;28;20875;-84
2023/10/11 10:48:31;;;;;;;26.38;5.75;;;;;;;24.60;75.02;97593.19;4978775;28;20439;-84
2023/10/11 10:51:04;;;;;;;15.55;3.83;;;;;;;25.02;74.75;97593.00;4995263;28;20414;-82
2023/10/11 10:53:40;;;;;;;7.95;3.13;;;;;;;25.27;75.09;97582.91;4996045;28;20501;-83
2023/10/11 10:56:18;;;;;;;5.43;2.80;;;;;;;25.57;75.56;97586.91;4997691;28;20432;-82
2023/10/11 10:58:44;;;;;;;5.20;2.67;;;;;;;25.97;75.89;97577.97;4998896;28;20439;-84
2023/10/11 11:01:10;;;;;;;5.30;2.40;;;;;;;26.07;75.79;97578.28;4998955;28;20399;-82
2023/10/11 11:03:41;;;;;;;11.52;3.80;;;;;;;26.34;75.88;97576.66;5001414;28;20780;-84
2023/10/11 11:06:11;;;;;;;14.83;4.00;;;;;;;26.20;70.77;97574.34;4996104;28;20416;-84
2023/10/11 11:08:39;;;;;;;12.70;3.73;;;;;;;25.98;65.93;97571.41;4995259;28;20418;-82
2023/10/11 11:13:51;;;;;;;21.65;4.75;;;;;;;25.58;63.19;97555.16;4998601;28;20441;-83
2023/10/11 11:16:26;;;;;;;11.85;3.63;;;;;;;25.45;65.95;97549.00;5001736;28;20430;-83
2023/10/11 11:19:00;;;;;;;10.32;3.80;;;;;;;25.52;67.75;97551.13;4999525;28;20434;-82
2023/10/11 11:21:30;;;;;;;11.07;3.43;;;;;;;25.30;66.58;97555.13;4987067;28;20459;-82
2023/10/11 11:24:14;;;;;;;8.15;3.55;;;;;;;25.49;68.88;97549.09;4985684;28;20415;-81
2023/10/11 11:26:41;;;;;;;8.33;3.20;;;;;;;25.63;70.00;97554.97;4984515;28;20784;-82
2023/10/11 11:29:16;;;;;;;12.95;3.45;;;;;;;25.95;68.95;97556.63;4983690;28;20400;-81
2023/10/11 11:31:53;;;;;;;11.23;3.90;;;;;;;26.00;68.13;97553.66;4985752;28;20404;-82
2023/10/11 11:34:37;;;;;;;8.25;3.53;;;;;;;26.15;67.21;97550.19;4982557;28;20450;-82
2023/10/11 11:37:06;;;;;;;6.00;2.80;;;;;;;26.45;68.57;97545.16;4982968;28;20440;-82
2023/10/11 11:39:42;;;;;;;11.02;3.35;;;;;;;26.67;68.00;97541.03;4982553;28;20439;-82
2023/10/11 11:42:18;;;;;;;8.93;3.47;;;;;;;26.71;65.48;97544.59;4989019;28;20496;-82
2023/10/11 11:44:46;;;;;;;19.70;4.95;;;;;;;26.55;59.42;97538.41;4983005;28;20428;-83
2023/10/11 11:47:21;;;;;;;11.05;3.70;;;;;;;26.76;61.64;97532.72;4983301;28;20483;-82
2023/10/11 11:49:48;;;;;;;12.70;3.72;;;;;;;27.00;61.53;97529.00;4988921;28;20457;-83
2023/10/11 11:52:18;;;;;;;7.50;3.25;;;;;;;27.20;61.28;97528.69;4984341;28;20467;-83
2023/10/11 11:54:45;;;;;;;9.05;3.67;;;;;;;27.08;60.60;97530.72;4972679;28;20431;-80
2023/10/11 11:57:11;;;;;;;9.30;3.67;;;;;;;26.76;60.89;97519.91;4982148;28;20420;-82
2023/10/11 11:59:39;;;;;;;9.27;3.80;;;;;;;26.40;61.94;97510.13;4981510;28;20440;-81
2023/10/11 12:02:16;;;;;;;7.00;3.35;;;;;;;26.14;63.65;97510.63;4985565;28;20754;-82
2023/10/11 12:04:44;;;;;;;11.80;3.10;;;;;;;25.89;66.25;97511.09;5001401;28;20406;-84
2023/10/11 12:07:11;;;;;;;5.97;3.08;;;;;;;25.76;68.75;97515.81;4998246;28;20478;-78
2023/10/11 12:09:38;;;;;;;11.07;3.15;;;;;;;25.64;70.09;97505.00;4997923;28;20937;-82
2023/10/11 12:12:06;;;;;;;10.25;3.38;;;;;;;25.73;70.82;97503.72;4988444;28;20414;-79
2023/10/11 12:14:40;;;;;;;12.37;3.30;;;;;;;26.29;67.23;97494.72;5000214;28;20435;-81
2023/10/11 12:17:10;;;;;;;8.60;3.60;;;;;;;26.99;66.96;97492.13;5000293;28;20426;-80
2023/10/11 12:19:36;;;;;;;8.57;3.33;;;;;;;27.59;64.86;97487.94;4986827;28;20411;-82
2023/10/11 12:22:03;;;;;;;12.48;3.38;;;;;;;28.12;64.65;97489.69;5000714;28;20415;-81
2023/10/11 12:24:30;;;;;;;9.23;3.20;;;;;;;28.76;62.70;97492.69;5000632;28;20398;-82